KGNT

Grants-Milan Municipal Airport

Grants, New Mexico, USA
METAR KGNT 231015Z AUTO 21003KT 10SM CLR M06/M13 A3006 RMK AO2 T10611130
Observed Flight Rules
Feb-23 @ 10:15 UTC (16 minutes ago) Visual Flight Rules
Wind Visibility Clouds
210° at 3 knots 10 miles
  • Clear skies
Temperatures Readings
Current -6°C / 21°F
Dewpoint -13°C / 9°F
Humidity 58%
Altimeter 30.06" Hg
Pressure 1018 hPa
Elevation 1987
METAR KGNT 231015Z AUTO 21003KT 10SM CLR M06/M13 A3006 RMK AO2 T10611130
Observed Flight Rules
Feb-23 @ 10:15 UTC
(16 minutes ago)
VFR
Wind Visibility
210° at 3 knots 10 miles
Clouds
  • Clear skies
Temperature Dewpoint
-6°C / 21°F -13°C / 9°F
Humidity Altimeter Pressure
58% 30.06" Hg 1018 hPa